Time;durP1;ratioP1;P1;durP2;ratioP2;P2;SDS_P1;SDS_P2;PMS_P1;PMS_P2;Temp;Humidity;BMP_temperature;BMP_pressure;BME280_temperature;BME280_humidity;BME280_pressure;Samples;Min_cycle;Max_cycle;Signal;HPM_P1;HPM_P2
2022/11/09 00:01:28;;;;;;;27.13;19.20;;;9.70;99.90;;;;;;6171525;23;20177;-88
2022/11/09 00:03:57;;;;;;;30.40;19.38;;;9.50;99.90;;;;;;6180985;23;20191;-87
2022/11/09 00:06:27;;;;;;;30.42;19.95;;;9.60;99.90;;;;;;6186691;23;20171;-85
2022/11/09 00:08:54;;;;;;;24.98;19.27;;;9.60;99.90;;;;;;6186257;23;20205;-87
2022/11/09 00:11:21;;;;;;;25.88;17.45;;;9.50;99.90;;;;;;6173865;23;20177;-86
2022/11/09 00:13:48;;;;;;;31.25;21.30;;;9.60;99.90;;;;;;6171263;23;20189;-86
2022/11/09 00:16:18;;;;;;;22.60;17.05;;;9.70;99.90;;;;;;6170292;23;20490;-87
2022/11/09 00:18:49;;;;;;;24.92;18.83;;;9.60;99.90;;;;;;6169532;23;20153;-86
2022/11/09 00:21:21;;;;;;;25.23;18.13;;;9.80;99.90;;;;;;6194542;23;20177;-88
2022/11/09 00:23:49;;;;;;;27.42;19.52;;;9.80;99.90;;;;;;6195398;23;20224;-83
2022/11/09 00:26:18;;;;;;;25.42;18.23;;;9.70;99.90;;;;;;6168120;23;20173;-85
2022/11/09 00:28:45;;;;;;;28.15;19.63;;;9.70;99.90;;;;;;6194489;23;20209;-84
2022/11/09 00:31:20;;;;;;;24.42;17.60;;;9.70;99.90;;;;;;6194308;23;20177;-88
2022/11/09 00:33:50;;;;;;;26.48;19.27;;;9.80;99.90;;;;;;6170174;23;20163;-82
2022/11/09 00:36:21;;;;;;;25.33;19.00;;;9.80;99.90;;;;;;6194261;23;20731;-82
2022/11/09 00:38:52;;;;;;;23.13;18.98;;;9.80;99.90;;;;;;6195467;23;20176;-82
2022/11/09 00:41:19;;;;;;;25.02;18.40;;;9.70;99.90;;;;;;6169316;23;20169;-85
2022/11/09 00:43:47;;;;;;;27.73;17.73;;;9.70;99.90;;;;;;6195072;23;20183;-83
2022/11/09 00:46:20;;;;;;;27.25;18.77;;;9.70;99.90;;;;;;6194961;23;20181;-86
2022/11/09 00:48:48;;;;;;;30.17;20.27;;;9.60;99.90;;;;;;6194347;23;20161;-83
2022/11/09 00:51:17;;;;;;;24.98;19.42;;;9.60;99.90;;;;;;6194351;23;20484;-83
2022/11/09 00:53:47;;;;;;;29.40;22.45;;;9.80;99.90;;;;;;6169206;23;20483;-83
2022/11/09 00:56:14;;;;;;;22.05;17.85;;;9.80;99.90;;;;;;6194670;23;20188;-83
2022/11/09 00:58:41;;;;;;;29.50;21.58;;;9.80;99.90;;;;;;6195409;23;20202;-82
2022/11/09 01:01:11;;;;;;;29.20;20.13;;;9.80;99.90;;;;;;6195571;23;20176;-80
2022/11/09 01:03:47;;;;;;;31.33;19.70;;;9.60;99.90;;;;;;6195569;23;20188;-82
2022/11/09 01:06:23;;;;;;;29.33;19.60;;;9.60;99.90;;;;;;6169118;23;20223;-85
2022/11/09 01:08:56;;;;;;;32.35;19.92;;;9.60;99.90;;;;;;6169543;23;20161;-85
2022/11/09 01:11:24;;;;;;;29.70;19.20;;;9.50;99.90;;;;;;6169867;23;20243;-80
2022/11/09 01:13:50;;;;;;;28.10;18.95;;;9.60;99.90;;;;;;6194872;23;20360;-82
2022/11/09 01:16:20;;;;;;;30.55;19.75;;;9.60;99.90;;;;;;6169211;23;20189;-83
2022/11/09 01:18:51;;;;;;;31.90;21.45;;;9.50;99.90;;;;;;6168988;23;20192;-83
2022/11/09 01:21:17;;;;;;;31.13;19.65;;;9.60;99.90;;;;;;6168526;23;20173;-84
2022/11/09 01:23:45;;;;;;;27.85;18.70;;;9.60;99.90;;;;;;6169080;23;20502;-85
2022/11/09 01:26:13;;;;;;;35.35;21.80;;;9.60;99.90;;;;;;6194435;23;20540;-85
2022/11/09 01:28:41;;;;;;;27.95;19.90;;;9.40;99.90;;;;;;6170651;23;20356;-83
2022/11/09 01:31:18;;;;;;;26.10;17.60;;;9.80;99.90;;;;;;6170130;23;20183;-82
2022/11/09 01:33:45;;;;;;;28.67;18.73;;;9.70;99.90;;;;;;6170302;23;20386;-83
2022/11/09 01:36:21;;;;;;;33.03;22.02;;;9.70;99.90;;;;;;6196014;23;20554;-84
2022/11/09 01:38:51;;;;;;;24.67;18.35;;;9.70;99.90;;;;;;6196387;23;20156;-84
2022/11/09 01:41:24;;;;;;;26.88;19.60;;;9.70;99.90;;;;;;6196093;23;20177;-85
2022/11/09 01:44:20;;;;;;;27.58;19.02;;;9.80;99.90;;;;;;6196512;23;20173;-86
2022/11/09 01:46:59;;;;;;;26.48;19.88;;;9.80;99.90;;;;;;6142260;23;20177;-83
2022/11/09 01:49:58;;;;;;;29.70;21.25;;;9.90;99.90;;;;;;6195584;23;20173;-83
2022/11/09 01:52:36;;;;;;;33.00;20.27;;;9.90;99.90;;;;;;6162075;23;20539;-85
2022/11/09 01:55:24;;;;;;;28.27;19.17;;;10.00;99.90;;;;;;6170366;23;20161;-84
2022/11/09 01:58:01;;;;;;;28.45;20.55;;;10.00;99.90;;;;;;6193520;23;20200;-81
2022/11/09 02:00:31;;;;;;;31.95;20.75;;;10.00;99.90;;;;;;6196518;23;20251;-83
2022/11/09 02:03:08;;;;;;;26.42;19.05;;;10.10;99.90;;;;;;6170306;23;20181;-82
2022/11/09 02:05:39;;;;;;;34.53;21.55;;;10.20;99.90;;;;;;6175540;23;20211;-83
2022/11/09 02:08:07;;;;;;;30.73;20.17;;;10.40;99.90;;;;;;6187912;23;20182;-82
2022/11/09 02:11:03;;;;;;;33.08;22.63;;;10.40;99.90;;;;;;6213617;23;20192;-84
2022/11/09 02:13:32;;;;;;;29.17;19.48;;;10.40;99.90;;;;;;6187764;23;20212;-84
2022/11/09 02:16:00;;;;;;;32.10;19.10;;;10.50;99.90;;;;;;6212886;23;20200;-86
2022/11/09 02:18:29;;;;;;;32.92;20.67;;;10.50;99.90;;;;;;6212568;23;20192;-85
2022/11/09 02:20:57;;;;;;;27.45;19.27;;;10.40;99.90;;;;;;6210851;23;20176;-82
2022/11/09 02:23:25;;;;;;;30.20;21.02;;;10.40;99.90;;;;;;6185599;23;20268;-83
2022/11/09 02:26:04;;;;;;;28.80;19.80;;;10.40;99.90;;;;;;6204022;23;20177;-84
2022/11/09 02:28:31;;;;;;;26.98;18.70;;;10.30;99.90;;;;;;6195473;23;20165;-86
2022/11/09 02:30:59;;;;;;;32.67;20.85;;;10.30;99.90;;;;;;6170542;23;20229;-84
2022/11/09 02:33:26;;;;;;;31.92;21.50;;;10.20;99.90;;;;;;6170534;23;20208;-81
2022/11/09 02:35:53;;;;;;;27.05;19.85;;;10.20;99.90;;;;;;6196336;23;20180;-86
2022/11/09 02:38:20;;;;;;;27.70;19.70;;;10.30;99.90;;;;;;6196615;23;20201;-83
2022/11/09 02:40:51;;;;;;;34.67;22.27;;;10.30;99.90;;;;;;6170206;23;20195;-83
2022/11/09 02:43:18;;;;;;;26.00;20.08;;;10.40;99.90;;;;;;6200126;23;20169;-83
2022/11/09 02:45:46;;;;;;;36.22;20.20;;;10.30;99.90;;;;;;6198501;23;20234;-81
2022/11/09 02:48:13;;;;;;;27.48;19.95;;;10.50;99.90;;;;;;6197041;23;20279;-83
2022/11/09 02:50:40;;;;;;;31.02;21.30;;;10.20;99.90;;;;;;6170265;23;20169;-82
2022/11/09 02:53:07;;;;;;;29.38;19.80;;;10.50;99.90;;;;;;6195779;23;20188;-85
2022/11/09 02:55:34;;;;;;;37.97;22.35;;;10.40;99.90;;;;;;6168572;23;20181;-84
2022/11/09 02:58:01;;;;;;;31.85;20.90;;;10.20;99.90;;;;;;6195217;23;20200;-83
2022/11/09 03:00:28;;;;;;;34.05;21.38;;;10.10;99.90;;;;;;6194565;23;20595;-82
2022/11/09 03:02:55;;;;;;;34.00;20.45;;;10.00;99.90;;;;;;6169074;23;20176;-82
2022/11/09 03:05:23;;;;;;;30.33;21.15;;;10.00;99.90;;;;;;6169611;23;20181;-87
2022/11/09 03:07:49;;;;;;;31.83;22.65;;;9.90;99.90;;;;;;6196083;23;20211;-83
2022/11/09 03:10:17;;;;;;;31.00;20.45;;;9.90;99.90;;;;;;6170300;23;20253;-83
2022/11/09 03:12:43;;;;;;;33.38;21.65;;;9.80;99.90;;;;;;6169693;23;20176;-84
2022/11/09 03:15:11;;;;;;;30.17;20.83;;;9.90;99.90;;;;;;6169535;23;20180;-83
2022/11/09 03:17:39;;;;;;;33.05;21.40;;;10.00;99.90;;;;;;6169401;23;20488;-83
2022/11/09 03:20:07;;;;;;;30.95;22.95;;;10.10;99.90;;;;;;6195412;23;20176;-84
2022/11/09 03:22:35;;;;;;;33.17;21.65;;;10.30;99.90;;;;;;6169514;23;20177;-84
2022/11/09 03:25:01;;;;;;;30.60;20.88;;;10.50;99.90;;;;;;6195994;23;20181;-84
2022/11/09 03:27:29;;;;;;;35.35;22.75;;;10.40;99.90;;;;;;6169196;23;20173;-83
2022/11/09 03:29:56;;;;;;;30.45;21.80;;;10.40;99.90;;;;;;6196346;23;20184;-85
2022/11/09 03:32:23;;;;;;;34.38;21.70;;;10.50;99.90;;;;;;6168259;23;20180;-85
2022/11/09 03:34:50;;;;;;;33.88;21.08;;;10.50;99.90;;;;;;6194401;23;20172;-84
2022/11/09 03:37:17;;;;;;;28.70;19.90;;;10.50;99.90;;;;;;6194999;23;20192;-85
2022/11/09 03:39:46;;;;;;;32.13;23.42;;;10.50;99.90;;;;;;6195304;23;20177;-85
2022/11/09 03:42:13;;;;;;;31.25;23.95;;;10.40;99.90;;;;;;6195126;23;20177;-85
2022/11/09 03:44:40;;;;;;;30.98;20.13;;;10.30;99.90;;;;;;6194410;23;20181;-84
2022/11/09 03:47:07;;;;;;;37.22;22.02;;;10.30;99.90;;;;;;6169278;23;20188;-85
2022/11/09 03:49:34;;;;;;;38.20;22.67;;;10.20;99.90;;;;;;6168883;23;20177;-84
2022/11/09 03:52:01;;;;;;;38.50;23.65;;;10.20;99.90;;;;;;6195467;23;20191;-86
2022/11/09 03:54:30;;;;;;;33.80;22.35;;;10.00;99.90;;;;;;6169423;23;20203;-82
2022/11/09 03:56:58;;;;;;;32.28;22.83;;;9.90;99.90;;;;;;6194886;23;20243;-84
2022/11/09 03:59:25;;;;;;;44.58;22.50;;;10.00;99.90;;;;;;6195368;23;20235;-83
2022/11/09 04:01:53;;;;;;;34.08;22.00;;;9.90;99.90;;;;;;6194957;23;20404;-85
2022/11/09 04:04:20;;;;;;;37.05;26.60;;;9.80;99.90;;;;;;6199077;23;20176;-89
2022/11/09 04:06:47;;;;;;;35.03;24.10;;;9.70;99.90;;;;;;6203811;23;20271;-84
2022/11/09 04:09:14;;;;;;;37.40;24.92;;;9.70;99.90;;;;;;6173422;23;20514;-84
2022/11/09 04:11:43;;;;;;;38.05;24.52;;;10.00;99.90;;;;;;6200874;23;20516;-82
2022/11/09 04:14:11;;;;;;;41.83;26.38;;;9.60;99.90;;;;;;6170498;23;20176;-84
2022/11/09 04:16:39;;;;;;;38.72;25.30;;;9.40;99.90;;;;;;6198168;23;20176;-84
2022/11/09 04:19:05;;;;;;;40.88;26.92;;;9.40;99.90;;;;;;6199214;23;20219;-84
2022/11/09 04:21:33;;;;;;;33.03;24.17;;;9.50;99.90;;;;;;6196743;23;20180;-82
2022/11/09 04:23:59;;;;;;;41.33;26.15;;;9.40;99.90;;;;;;6195547;23;20587;-82
2022/11/09 04:26:27;;;;;;;38.78;24.23;;;9.40;99.90;;;;;;6195318;23;20235;-82
2022/11/09 04:28:54;;;;;;;36.38;27.55;;;9.40;99.90;;;;;;6194898;23;20187;-81
2022/11/09 04:31:21;;;;;;;42.28;26.23;;;9.40;99.90;;;;;;6194660;23;20222;-84
2022/11/09 04:33:53;;;;;;;35.20;24.80;;;9.40;99.90;;;;;;6169543;23;20173;-85
2022/11/09 04:36:20;;;;;;;38.10;26.45;;;9.30;99.90;;;;;;6195293;23;20273;-86
2022/11/09 04:38:48;;;;;;;39.28;25.45;;;9.10;99.90;;;;;;6194700;23;20256;-84
2022/11/09 04:41:15;;;;;;;35.55;25.40;;;9.20;99.90;;;;;;6169916;23;20176;-85
2022/11/09 04:43:42;;;;;;;36.85;26.23;;;9.00;99.90;;;;;;6195787;23;20229;-89
2022/11/09 04:46:09;;;;;;;40.72;26.60;;;9.00;99.90;;;;;;6169677;23;20183;-86
2022/11/09 04:48:37;;;;;;;37.65;25.65;;;9.00;99.90;;;;;;6193503;23;20187;-83
2022/11/09 04:51:09;;;;;;;49.35;28.83;;;9.00;99.90;;;;;;6166394;23;20401;-84
2022/11/09 04:53:37;;;;;;;45.67;26.67;;;8.90;99.90;;;;;;6193143;23;20184;-83
2022/11/09 04:56:05;;;;;;;43.25;27.58;;;9.00;99.90;;;;;;6191877;23;20485;-85
2022/11/09 04:58:33;;;;;;;38.17;25.52;;;9.10;99.90;;;;;;6192050;23;20192;-81
2022/11/09 05:01:11;;;;;;;40.17;26.50;;;9.30;99.90;;;;;;6166646;23;20188;-82
2022/11/09 05:03:38;;;;;;;39.38;25.23;;;9.40;99.90;;;;;;6202112;23;20169;-83
2022/11/09 05:08:55;;;;;;;37.55;24.08;;;9.40;99.90;;;;;;6196220;23;20220;-82
2022/11/09 05:11:22;;;;;;;34.97;23.88;;;9.40;99.90;;;;;;6200157;23;20353;-85
2022/11/09 05:13:50;;;;;;;36.15;25.65;;;9.40;99.90;;;;;;6213307;23;20169;-82
2022/11/09 05:16:18;;;;;;;38.17;25.58;;;9.60;99.90;;;;;;6213355;23;20196;-82
2022/11/09 05:18:46;;;;;;;43.55;27.48;;;9.60;99.90;;;;;;6200150;23;20234;-85
2022/11/09 05:21:13;;;;;;;36.58;23.45;;;9.60;99.90;;;;;;6170198;23;20345;-83
2022/11/09 05:23:58;;;;;;;35.60;22.80;;;9.60;99.90;;;;;;6193952;23;20189;-83
2022/11/09 05:26:31;;;;;;;36.05;25.88;;;9.60;99.90;;;;;;6193196;23;20204;-82
2022/11/09 05:29:00;;;;;;;43.13;26.33;;;9.60;99.90;;;;;;6193251;23;20169;-85
2022/11/09 05:31:27;;;;;;;45.90;26.38;;;9.50;99.90;;;;;;6167417;23;20181;-85
2022/11/09 05:33:56;;;;;;;39.63;27.02;;;9.30;99.90;;;;;;6193694;23;20231;-84
2022/11/09 05:36:22;;;;;;;38.58;25.30;;;9.30;99.90;;;;;;6167859;23;20514;-83
2022/11/09 05:38:50;;;;;;;37.75;25.27;;;9.50;99.90;;;;;;6193472;23;20205;-85
2022/11/09 05:41:17;;;;;;;33.78;23.17;;;9.40;99.90;;;;;;6168093;23;20192;-82
2022/11/09 05:43:46;;;;;;;43.03;27.92;;;9.30;99.90;;;;;;6193670;23;20188;-82
2022/11/09 05:46:15;;;;;;;38.35;25.75;;;9.40;99.90;;;;;;6193637;23;20177;-84
2022/11/09 05:48:42;;;;;;;45.38;26.98;;;9.40;99.90;;;;;;6196132;23;20404;-84
2022/11/09 05:51:12;;;;;;;42.97;27.92;;;9.30;99.90;;;;;;6170242;23;20193;-81
2022/11/09 05:53:40;;;;;;;38.53;26.42;;;9.40;99.90;;;;;;6171262;23;20162;-85
2022/11/09 05:56:14;;;;;;;42.60;27.50;;;9.50;99.90;;;;;;6199701;23;20177;-84
2022/11/09 05:58:43;;;;;;;41.72;26.10;;;9.40;99.90;;;;;;6175328;23;20195;-85
2022/11/09 06:01:17;;;;;;;36.67;25.45;;;9.20;99.90;;;;;;6177105;23;20183;-85
2022/11/09 06:04:10;;;;;;;40.50;27.38;;;9.00;99.90;;;;;;6182338;23;20179;-82
2022/11/09 06:06:37;;;;;;;42.95;25.60;;;9.00;99.90;;;;;;6193096;23;20173;-83
2022/11/09 06:09:06;;;;;;;39.72;24.02;;;8.90;99.90;;;;;;6169240;23;20169;-83
2022/11/09 06:11:41;;;;;;;45.65;29.17;;;8.80;99.90;;;;;;6170676;23;20165;-83
2022/11/09 06:14:09;;;;;;;39.90;25.83;;;8.80;99.90;;;;;;6167725;23;20188;-84
2022/11/09 06:16:36;;;;;;;39.28;25.80;;;8.80;99.90;;;;;;6193776;23;20231;-83
2022/11/09 06:19:04;;;;;;;42.58;26.13;;;9.00;99.90;;;;;;6167010;23;20267;-85
2022/11/09 06:21:31;;;;;;;40.95;24.90;;;9.10;99.90;;;;;;6192180;23;20188;-84
2022/11/09 06:23:58;;;;;;;40.78;26.20;;;9.10;99.90;;;;;;6167050;23;20195;-86
2022/11/09 06:26:25;;;;;;;40.55;25.52;;;8.90;99.90;;;;;;6193263;23;20261;-85
2022/11/09 06:28:52;;;;;;;39.65;25.83;;;8.80;99.90;;;;;;6196307;23;20220;-81
2022/11/09 06:31:22;;;;;;;40.83;27.02;;;8.80;99.90;;;;;;6195393;23;20192;-84
2022/11/09 06:33:48;;;;;;;44.17;26.30;;;9.00;99.90;;;;;;6170159;23;20180;-83
2022/11/09 06:36:16;;;;;;;42.45;26.33;;;9.10;99.90;;;;;;6169992;23;20181;-84
2022/11/09 06:38:48;;;;;;;45.80;27.13;;;9.10;99.90;;;;;;6167867;23;20208;-82
2022/11/09 06:41:20;;;;;;;39.00;24.58;;;9.20;99.90;;;;;;6167942;23;20170;-85
2022/11/09 06:43:48;;;;;;;45.22;26.77;;;9.10;99.90;;;;;;6169708;23;20169;-85
2022/11/09 06:46:17;;;;;;;43.55;27.58;;;9.30;99.90;;;;;;6168447;23;20410;-85
2022/11/09 06:48:44;;;;;;;51.28;28.13;;;9.10;99.90;;;;;;6194046;23;20173;-84
2022/11/09 06:51:17;;;;;;;41.90;28.05;;;9.30;99.90;;;;;;6194440;23;20187;-85
2022/11/09 06:53:44;;;;;;;41.67;25.38;;;9.20;99.90;;;;;;6197180;23;20196;-86
2022/11/09 06:56:12;;;;;;;41.95;26.35;;;9.30;99.90;;;;;;6210222;23;20257;-87
2022/11/09 06:58:39;;;;;;;39.65;24.83;;;9.10;99.90;;;;;;6211380;23;20192;-82
2022/11/09 07:01:08;;;;;;;39.33;26.40;;;9.10;99.90;;;;;;6160237;23;20197;-88
2022/11/09 07:03:38;;;;;;;38.70;25.90;;;9.20;99.90;;;;;;6206843;23;20169;-91
2022/11/09 07:06:07;;;;;;;45.47;27.25;;;9.30;99.90;;;;;;6194935;23;20456;-84
2022/11/09 07:08:34;;;;;;;37.95;26.25;;;9.40;99.90;;;;;;6167503;23;20185;-82
2022/11/09 07:11:15;;;;;;;45.40;27.63;;;9.50;99.90;;;;;;6192928;23;20484;-82
2022/11/09 07:13:42;;;;;;;39.33;23.85;;;9.70;99.90;;;;;;6192887;23;20161;-83
2022/11/09 07:16:11;;;;;;;33.85;21.27;;;9.50;99.90;;;;;;6190897;23;20252;-83
2022/11/09 07:18:38;;;;;;;31.38;22.75;;;9.60;99.90;;;;;;6165300;23;20201;-86
2022/11/09 07:21:05;;;;;;;38.13;22.70;;;9.70;99.90;;;;;;6165495;23;20252;-85
2022/11/09 07:23:40;;;;;;;43.58;24.42;;;10.10;99.90;;;;;;6167110;23;20201;-84
2022/11/09 07:26:08;;;;;;;30.75;21.10;;;10.40;99.90;;;;;;6191292;23;20208;-84
2022/11/09 07:28:36;;;;;;;34.53;20.05;;;10.80;99.90;;;;;;6191126;23;20293;-83
2022/11/09 07:31:04;;;;;;;30.58;20.23;;;11.30;99.90;;;;;;6166103;23;20235;-82
2022/11/09 07:33:32;;;;;;;25.35;17.00;;;12.00;99.90;;;;;;6192064;23;20184;-87
2022/11/09 07:36:00;;;;;;;30.10;19.85;;;12.50;99.90;;;;;;6192065;23;20185;-88
2022/11/09 07:38:31;;;;;;;24.55;17.13;;;13.00;99.90;;;;;;6192026;23;20208;-85
2022/11/09 07:40:59;;;;;;;29.25;17.58;;;13.40;99.90;;;;;;6192163;23;20184;-85
2022/11/09 07:43:27;;;;;;;28.13;18.20;;;14.10;99.90;;;;;;6192308;23;20177;-83
2022/11/09 07:45:55;;;;;;;19.85;14.75;;;14.20;99.90;;;;;;6192717;23;20173;-84
2022/11/09 07:48:23;;;;;;;26.65;17.50;;;14.30;99.90;;;;;;6192091;23;20520;-83
2022/11/09 07:50:50;;;;;;;26.88;17.23;;;13.60;99.90;;;;;;6191949;23;20428;-83
2022/11/09 07:53:18;;;;;;;22.55;16.42;;;13.30;99.90;;;;;;6168072;23;20400;-85
2022/11/09 07:55:45;;;;;;;27.23;17.73;;;12.70;99.90;;;;;;6167479;23;20235;-83
2022/11/09 07:58:14;;;;;;;24.33;17.20;;;12.20;99.90;;;;;;6166789;23;20209;-85
2022/11/09 08:00:42;;;;;;;28.90;17.92;;;12.20;99.90;;;;;;6166278;23;20185;-82
2022/11/09 08:03:10;;;;;;;26.10;17.90;;;12.20;99.90;;;;;;6196412;23;20185;-82
2022/11/09 08:05:37;;;;;;;24.80;17.70;;;12.40;99.90;;;;;;6194123;23;20223;-84
2022/11/09 08:08:07;;;;;;;55.80;28.65;;;12.90;99.90;;;;;;6197399;23;20287;-82
2022/11/09 08:10:35;;;;;;;124.03;53.50;;;12.90;99.90;;;;;;6201638;23;20188;-86
2022/11/09 08:13:05;;;;;;;41.50;21.60;;;13.00;99.90;;;;;;6205102;23;20177;-82
2022/11/09 08:15:34;;;;;;;40.15;22.48;;;13.00;99.90;;;;;;6208827;23;20191;-84
2022/11/09 08:18:04;;;;;;;44.30;23.10;;;13.10;99.90;;;;;;6209838;23;20251;-83
2022/11/09 08:20:32;;;;;;;561.20;202.23;;;13.20;99.90;;;;;;6207145;23;20484;-83
2022/11/09 08:22:59;;;;;;;216.68;75.47;;;13.40;99.90;;;;;;6200230;23;20543;-82
2022/11/09 08:25:34;;;;;;;285.75;95.53;;;13.70;99.90;;;;;;6194940;23;20480;-82
2022/11/09 08:28:02;;;;;;;117.80;40.17;;;14.30;99.90;;;;;;6191624;23;20232;-84
2022/11/09 08:30:30;;;;;;;32.17;16.40;;;15.00;99.90;;;;;;6192585;23;20185;-81
2022/11/09 08:32:59;;;;;;;35.20;19.43;;;15.70;99.90;;;;;;6191520;23;20430;-82
2022/11/09 08:35:26;;;;;;;38.37;18.37;;;16.20;99.90;;;;;;6189800;23;20399;-82
2022/11/09 08:37:54;;;;;;;26.67;17.40;;;16.00;99.90;;;;;;6190436;23;20441;-81
2022/11/09 08:40:25;;;;;;;28.07;17.27;;;15.60;99.90;;;;;;6190366;23;20391;-82
2022/11/09 08:42:53;;;;;;;25.60;17.10;;;15.30;99.90;;;;;;6191196;23;20379;-82
2022/11/09 08:45:20;;;;;;;34.03;19.87;;;15.00;99.90;;;;;;6191330;23;20422;-81
2022/11/09 08:47:47;;;;;;;30.83;18.40;;;14.90;99.90;;;;;;6190834;23;20449;-82
2022/11/09 08:50:15;;;;;;;52.17;30.37;;;15.20;99.90;;;;;;6190110;23;20667;-82
2022/11/09 08:52:42;;;;;;;65.57;34.33;;;15.20;99.90;;;;;;6190216;23;20461;-81
2022/11/09 08:55:09;;;;;;;55.50;29.07;;;15.30;99.90;;;;;;6190688;23;20411;-82
2022/11/09 08:57:36;;;;;;;67.70;39.97;;;15.30;99.90;;;;;;6164781;23;20426;-82
2022/11/09 09:00:05;;;;;;;27.57;19.10;;;15.30;99.90;;;;;;6164954;23;21138;-83
2022/11/09 09:02:33;;;;;;;30.97;21.77;;;15.30;99.90;;;;;;6191300;23;20422;-83
2022/11/09 09:05:00;;;;;;;31.93;21.00;;;15.50;99.90;;;;;;6191568;23;20453;-82
2022/11/09 09:07:27;;;;;;;24.20;15.30;;;15.70;99.90;;;;;;6191756;23;20415;-80
2022/11/09 09:09:55;;;;;;;18.90;13.70;;;15.60;99.90;;;;;;6191711;23;20466;-82
2022/11/09 09:12:24;;;;;;;21.97;16.37;;;15.20;99.90;;;;;;6191191;23;20418;-82
2022/11/09 09:14:51;;;;;;;20.60;14.00;;;15.00;99.90;;;;;;6166940;23;20403;-82
2022/11/09 09:17:19;;;;;;;20.10;13.80;;;15.10;99.90;;;;;;6141699;23;20400;-80
2022/11/09 09:19:46;;;;;;;20.08;14.45;;;15.10;99.90;;;;;;6192848;23;20397;-83
2022/11/09 09:22:16;;;;;;;17.20;13.67;;;14.90;99.90;;;;;;6193172;23;20203;-83
2022/11/09 09:24:43;;;;;;;23.00;15.27;;;14.70;99.90;;;;;;6193176;23;20741;-82
2022/11/09 09:27:10;;;;;;;21.40;14.53;;;14.80;99.90;;;;;;6191600;23;20414;-83
2022/11/09 09:29:36;;;;;;;15.53;12.97;;;15.10;99.90;;;;;;6192741;23;20401;-82
2022/11/09 09:32:04;;;;;;;20.75;14.88;;;15.10;99.90;;;;;;6196509;23;20820;-80
2022/11/09 09:34:31;;;;;;;23.30;17.57;;;15.00;99.90;;;;;;6167803;23;20526;-85
2022/11/09 09:36:59;;;;;;;22.53;14.83;;;15.50;99.90;;;;;;6193204;23;20402;-81
2022/11/09 09:39:26;;;;;;;17.90;13.10;;;15.80;99.90;;;;;;6166457;23;20463;-82
2022/11/09 09:41:59;;;;;;;24.10;14.53;;;15.50;99.90;;;;;;6192725;23;20390;-83
2022/11/09 09:44:44;;;;;;;22.80;14.13;;;15.80;99.90;;;;;;6193736;23;20475;-83
2022/11/09 09:47:26;;;;;;;17.37;14.33;;;15.80;99.90;;;;;;6168073;23;20455;-82
2022/11/09 09:50:01;;;;;;;22.00;14.20;;;15.60;99.90;;;;;;6195285;23;20391;-83
2022/11/09 09:52:35;;;;;;;17.17;12.43;;;15.80;99.90;;;;;;6169095;23;20385;-83
2022/11/09 09:55:28;;;;;;;16.17;12.00;;;15.60;99.90;;;;;;6196112;23;21061;-82
2022/11/09 09:58:09;;;;;;;19.70;13.27;;;15.50;99.90;;;;;;6196240;23;20364;-83
2022/11/09 10:00:38;;;;;;;21.83;13.03;;;15.80;99.90;;;;;;6169077;23;20379;-81
2022/11/09 10:03:16;;;;;;;21.60;14.20;;;15.90;99.90;;;;;;6195996;23;20585;-82
2022/11/09 10:05:59;;;;;;;20.00;15.03;;;15.90;99.90;;;;;;6194320;23;20395;-82
2022/11/09 10:08:33;;;;;;;21.27;15.47;;;15.80;99.90;;;;;;6194214;23;20454;-83
2022/11/09 10:11:36;;;;;;;22.70;15.37;;;16.00;99.90;;;;;;6195646;23;20371;-82
2022/11/09 10:14:14;;;;;;;21.80;14.47;;;16.30;99.90;;;;;;6196496;23;20862;-84
2022/11/09 10:16:58;;;;;;;19.67;14.03;;;16.30;99.90;;;;;;6172039;23;20460;-83
2022/11/09 10:19:34;;;;;;;21.57;14.40;;;16.00;99.90;;;;;;6170563;23;20418;-83
2022/11/09 10:22:16;;;;;;;20.20;15.03;;;15.70;99.90;;;;;;6171791;23;20729;-83
2022/11/09 10:25:05;;;;;;;23.20;15.63;;;15.70;99.90;;;;;;6194942;23;20383;-83
2022/11/09 10:28:01;;;;;;;18.00;12.90;;;15.90;99.90;;;;;;6173271;23;20406;-82
2022/11/09 10:30:29;;;;;;;17.97;14.13;;;16.30;99.90;;;;;;6169790;23;20382;-82
2022/11/09 10:33:10;;;;;;;19.20;13.50;;;16.40;99.90;;;;;;6195763;23;20450;-83
2022/11/09 10:35:43;;;;;;;20.00;13.50;;;16.60;99.90;;;;;;6194147;23;20387;-83
2022/11/09 10:38:20;;;;;;;19.47;12.90;;;16.80;99.90;;;;;;6168319;23;20379;-85
2022/11/09 10:40:59;;;;;;;15.47;12.53;;;16.90;99.90;;;;;;6193557;23;20485;-84
2022/11/09 10:43:26;;;;;;;16.87;12.50;;;17.10;99.90;;;;;;6168236;23;20349;-84
2022/11/09 10:46:03;;;;;;;18.03;12.57;;;17.00;99.90;;;;;;6168866;23;20402;-83
2022/11/09 10:48:39;;;;;;;17.87;13.10;;;17.30;99.90;;;;;;6167033;23;20450;-82
2022/11/09 10:51:32;;;;;;;16.30;11.07;;;17.40;99.90;;;;;;6193921;23;20383;-83
2022/11/09 10:54:20;;;;;;;19.73;13.00;;;17.30;99.90;;;;;;6193722;23;20407;-83
2022/11/09 10:57:04;;;;;;;17.57;13.50;;;17.10;99.90;;;;;;6167304;23;20419;-84
2022/11/09 10:59:44;;;;;;;18.30;14.40;;;17.00;99.90;;;;;;6168198;23;20437;-83
2022/11/09 11:02:27;;;;;;;18.60;15.17;;;17.10;99.90;;;;;;6195367;23;20353;-81
2022/11/09 11:05:04;;;;;;;16.60;12.30;;;16.90;99.90;;;;;;6195559;23;20379;-82
2022/11/09 11:07:33;;;;;;;19.77;13.47;;;17.00;99.90;;;;;;6168107;23;20407;-82
2022/11/09 11:10:16;;;;;;;20.53;13.90;;;17.10;99.90;;;;;;6194973;23;20403;-82
2022/11/09 11:12:58;;;;;;;15.03;11.23;;;17.30;99.90;;;;;;6194211;23;20382;-83
2022/11/09 11:15:38;;;;;;;17.30;10.93;;;17.10;99.90;;;;;;6193516;23;20630;-82
2022/11/09 11:18:19;;;;;;;17.77;13.03;;;16.80;99.90;;;;;;6193634;23;20456;-85
2022/11/09 11:20:46;;;;;;;16.53;12.80;;;17.00;99.90;;;;;;6194573;23;20395;-81
2022/11/09 11:23:17;;;;;;;14.77;11.77;;;17.30;99.90;;;;;;6168308;23;20402;-82
2022/11/09 11:25:56;;;;;;;19.97;12.73;;;17.40;99.90;;;;;;6194558;23;20426;-84
2022/11/09 11:28:29;;;;;;;22.30;14.87;;;17.70;99.90;;;;;;6194581;23;20374;-83
2022/11/09 11:30:56;;;;;;;21.97;13.43;;;17.80;99.90;;;;;;6194837;23;20400;-83
2022/11/09 11:33:23;;;;;;;16.77;12.60;;;17.70;99.90;;;;;;6168506;23;20397;-82
2022/11/09 11:36:25;;;;;;;19.07;14.93;;;18.00;99.90;;;;;;6196065;23;20595;-81
2022/11/09 11:39:07;;;;;;;21.70;14.20;;;18.00;99.90;;;;;;6196475;23;20418;-83
2022/11/09 11:41:46;;;;;;;21.17;15.23;;;18.00;99.90;;;;;;6195980;23;20390;-82
2022/11/09 11:44:52;;;;;;;15.80;11.27;;;17.90;99.90;;;;;;6174267;23;20371;-85
2022/11/09 11:48:00;;;;;;;22.40;13.53;;;17.80;99.90;;;;;;6212689;23;20377;-83
2022/11/09 11:50:43;;;;;;;15.40;10.10;;;17.40;99.90;;;;;;6186783;23;20431;-82
2022/11/09 11:53:27;;;;;;;15.70;11.80;;;17.50;99.90;;;;;;6208530;23;20370;-86
2022/11/09 11:56:10;;;;;;;15.60;11.90;;;17.40;99.90;;;;;;6198671;23;20433;-83
2022/11/09 11:59:08;;;;;;;21.77;13.73;;;17.20;99.90;;;;;;6198165;23;20413;-82
2022/11/09 12:01:35;;;;;;;21.97;12.83;;;16.60;99.90;;;;;;6179605;23;20360;-87
2022/11/09 12:04:27;;;;;;;17.00;13.20;;;16.50;99.90;;;;;;6206423;23;20395;-85
2022/11/09 12:07:27;;;;;;;16.90;12.27;;;16.20;99.90;;;;;;6185495;23;20379;-86
2022/11/09 12:10:06;;;;;;;16.87;14.93;;;16.10;99.90;;;;;;6210768;23;20379;-84
2022/11/09 12:12:49;;;;;;;25.33;13.93;;;16.00;99.90;;;;;;6211559;23;20406;-82
2022/11/09 12:15:19;;;;;;;20.93;13.20;;;16.10;99.90;;;;;;6209357;23;20399;-84
2022/11/09 12:18:01;;;;;;;15.13;12.30;;;16.10;99.90;;;;;;6205160;23;20390;-83
2022/11/09 12:20:37;;;;;;;20.70;13.90;;;16.10;99.90;;;;;;6197419;23;20497;-84
2022/11/09 12:23:33;;;;;;;18.13;12.57;;;16.00;99.90;;;;;;6197303;23;20345;-84
2022/11/09 12:26:18;;;;;;;18.50;12.67;;;16.00;99.90;;;;;;6196561;23;20417;-85
2022/11/09 12:29:16;;;;;;;22.40;13.97;;;15.90;99.90;;;;;;6169169;23;20679;-83
2022/11/09 12:32:13;;;;;;;22.63;13.67;;;15.80;99.90;;;;;;6169481;23;20362;-84
2022/11/09 12:34:41;;;;;;;20.47;13.43;;;15.70;99.90;;;;;;6168321;23;20431;-83
2022/11/09 12:37:21;;;;;;;21.67;14.50;;;15.70;99.90;;;;;;6193432;23;20393;-84
2022/11/09 12:39:52;;;;;;;24.80;15.33;;;15.70;99.90;;;;;;6193726;23;20788;-84
2022/11/09 12:42:24;;;;;;;22.90;15.77;;;15.70;99.90;;;;;;6192404;23;20630;-84
2022/11/09 12:45:41;;;;;;;26.23;13.30;;;15.70;99.90;;;;;;6192316;23;20449;-84
2022/11/09 12:48:29;;;;;;;18.73;12.80;;;15.40;99.90;;;;;;6043083;23;21076;-85
2022/11/09 12:50:59;;;;;;;28.10;14.47;;;15.30;99.90;;;;;;6043943;23;20383;-82
2022/11/09 12:53:44;;;;;;;25.60;14.73;;;15.50;99.90;;;;;;6137904;23;20419;-83
2022/11/09 12:56:24;;;;;;;19.83;12.47;;;15.20;99.90;;;;;;6191813;23;20378;-83
2022/11/09 12:58:51;;;;;;;26.23;14.60;;;15.20;99.90;;;;;;6194533;23;20357;-85